sensor_id;sensor_type;location;lat;lon;timestamp;pressure;altitude;pressure_sealevel;temperature;humidity
51239;BME280;38154;47.548;18.828;2022-09-09T00:00:13;98519.88;;;15.88;100.00
51239;BME280;38154;47.548;18.828;2022-09-09T00:02:45;98523.50;;;15.84;100.00
51239;BME280;38154;47.548;18.828;2022-09-09T00:07:52;98497.50;;;15.72;100.00
51239;BME280;38154;47.548;18.828;2022-09-09T00:10:28;98497.56;;;15.69;100.00
51239;BME280;38154;47.548;18.828;2022-09-09T00:13:04;98498.34;;;15.72;100.00
51239;BME280;38154;47.548;18.828;2022-09-09T00:16:02;98489.50;;;15.76;100.00
51239;BME280;38154;47.548;18.828;2022-09-09T00:21:14;98485.66;;;15.90;100.00
51239;BME280;38154;47.548;18.828;2022-09-09T00:23:54;98493.31;;;16.01;100.00
51239;BME280;38154;47.548;18.828;2022-09-09T00:26:34;98484.41;;;16.05;100.00
51239;BME280;38154;47.548;18.828;2022-09-09T00:29:16;98489.69;;;16.05;100.00
51239;BME280;38154;47.548;18.828;2022-09-09T00:31:45;98492.09;;;16.14;100.00
51239;BME280;38154;47.548;18.828;2022-09-09T00:34:23;98485.81;;;16.18;100.00
51239;BME280;38154;47.548;18.828;2022-09-09T00:36:52;98490.13;;;16.22;100.00
51239;BME280;38154;47.548;18.828;2022-09-09T00:39:32;98495.31;;;16.24;100.00
51239;BME280;38154;47.548;18.828;2022-09-09T00:42:16;98506.69;;;16.26;100.00
51239;BME280;38154;47.548;18.828;2022-09-09T00:55:28;98516.84;;;16.40;100.00
51239;BME280;38154;47.548;18.828;2022-09-09T00:57:59;98514.53;;;16.27;100.00
51239;BME280;38154;47.548;18.828;2022-09-09T01:00:29;98520.78;;;16.23;100.00
51239;BME280;38154;47.548;18.828;2022-09-09T01:08:49;98530.41;;;16.24;100.00
51239;BME280;38154;47.548;18.828;2022-09-09T01:11:23;98535.59;;;16.27;100.00
51239;BME280;38154;47.548;18.828;2022-09-09T01:16:59;98540.03;;;16.24;100.00
51239;BME280;38154;47.548;18.828;2022-09-09T01:19:44;98536.78;;;16.16;100.00
51239;BME280;38154;47.548;18.828;2022-09-09T01:27:32;98535.41;;;15.99;100.00
51239;BME280;38154;47.548;18.828;2022-09-09T01:29:59;98542.97;;;16.13;100.00
51239;BME280;38154;47.548;18.828;2022-09-09T01:32:50;98530.78;;;16.09;100.00
51239;BME280;38154;47.548;18.828;2022-09-09T01:35:33;98537.81;;;16.08;100.00
51239;BME280;38154;47.548;18.828;2022-09-09T01:38:00;98547.50;;;16.06;100.00
51239;BME280;38154;47.548;18.828;2022-09-09T01:40:26;98549.06;;;16.13;100.00
51239;BME280;38154;47.548;18.828;2022-09-09T01:42:53;98551.69;;;16.13;100.00
51239;BME280;38154;47.548;18.828;2022-09-09T01:45:19;98545.59;;;16.13;100.00
51239;BME280;38154;47.548;18.828;2022-09-09T01:47:47;98549.06;;;16.13;100.00
51239;BME280;38154;47.548;18.828;2022-09-09T01:50:16;98544.56;;;16.19;100.00
51239;BME280;38154;47.548;18.828;2022-09-09T01:52:44;98544.66;;;16.16;100.00
51239;BME280;38154;47.548;18.828;2022-09-09T01:55:12;98550.81;;;16.14;100.00
51239;BME280;38154;47.548;18.828;2022-09-09T01:58:04;98542.25;;;16.06;100.00
51239;BME280;38154;47.548;18.828;2022-09-09T02:00:43;98550.88;;;16.11;100.00
51239;BME280;38154;47.548;18.828;2022-09-09T02:03:29;98550.94;;;16.08;100.00
51239;BME280;38154;47.548;18.828;2022-09-09T02:06:25;98559.75;;;16.07;100.00
51239;BME280;38154;47.548;18.828;2022-09-09T02:08:55;98551.00;;;16.07;100.00
51239;BME280;38154;47.548;18.828;2022-09-09T02:11:24;98551.91;;;16.06;100.00
51239;BME280;38154;47.548;18.828;2022-09-09T02:13:57;98553.59;;;16.08;100.00
51239;BME280;38154;47.548;18.828;2022-09-09T02:16:37;98562.50;;;16.03;100.00
51239;BME280;38154;47.548;18.828;2022-09-09T02:19:27;98553.72;;;16.04;100.00
51239;BME280;38154;47.548;18.828;2022-09-09T02:21:57;98550.94;;;16.08;100.00
51239;BME280;38154;47.548;18.828;2022-09-09T02:24:27;98558.09;;;16.03;100.00
51239;BME280;38154;47.548;18.828;2022-09-09T02:26:55;98558.91;;;16.05;100.00
51239;BME280;38154;47.548;18.828;2022-09-09T02:29:30;98555.50;;;16.02;100.00
51239;BME280;38154;47.548;18.828;2022-09-09T02:32:01;98553.81;;;15.99;100.00
51239;BME280;38154;47.548;18.828;2022-09-09T02:34:30;98556.50;;;15.98;100.00
51239;BME280;38154;47.548;18.828;2022-09-09T02:36:57;98553.03;;;15.95;100.00
51239;BME280;38154;47.548;18.828;2022-09-09T02:39:25;98548.66;;;15.94;100.00
51239;BME280;38154;47.548;18.828;2022-09-09T02:41:51;98551.28;;;15.94;100.00
51239;BME280;38154;47.548;18.828;2022-09-09T02:44:18;98550.56;;;15.88;100.00
51239;BME280;38154;47.548;18.828;2022-09-09T02:46:57;98551.41;;;15.90;100.00
51239;BME280;38154;47.548;18.828;2022-09-09T02:52:06;98556.69;;;15.88;100.00
51239;BME280;38154;47.548;18.828;2022-09-09T02:54:37;98549.94;;;15.78;100.00
51239;BME280;38154;47.548;18.828;2022-09-09T02:59:33;98544.59;;;15.81;100.00
51239;BME280;38154;47.548;18.828;2022-09-09T03:01:59;98544.56;;;15.83;100.00
51239;BME280;38154;47.548;18.828;2022-09-09T03:04:25;98536.63;;;15.86;100.00
51239;BME280;38154;47.548;18.828;2022-09-09T03:06:51;98543.09;;;15.69;100.00
51239;BME280;38154;47.548;18.828;2022-09-09T03:09:16;98546.72;;;15.65;100.00
51239;BME280;38154;47.548;18.828;2022-09-09T03:11:42;98539.81;;;15.59;100.00
51239;BME280;38154;47.548;18.828;2022-09-09T03:14:08;98539.78;;;15.61;100.00
51239;BME280;38154;47.548;18.828;2022-09-09T03:16:37;98544.94;;;15.66;100.00
51239;BME280;38154;47.548;18.828;2022-09-09T03:19:03;98547.63;;;15.63;100.00
51239;BME280;38154;47.548;18.828;2022-09-09T03:21:29;98550.44;;;15.53;100.00
51239;BME280;38154;47.548;18.828;2022-09-09T03:23:54;98547.00;;;15.51;100.00
51239;BME280;38154;47.548;18.828;2022-09-09T03:26:21;98547.97;;;15.47;100.00
51239;BME280;38154;47.548;18.828;2022-09-09T03:28:47;98545.28;;;15.50;100.00
51239;BME280;38154;47.548;18.828;2022-09-09T03:31:13;98551.50;;;15.46;100.00
51239;BME280;38154;47.548;18.828;2022-09-09T03:33:39;98542.91;;;15.38;100.00
51239;BME280;38154;47.548;18.828;2022-09-09T03:36:06;98544.78;;;15.33;100.00
51239;BME280;38154;47.548;18.828;2022-09-09T03:38:34;98556.03;;;15.38;100.00
51239;BME280;38154;47.548;18.828;2022-09-09T03:41:00;98561.28;;;15.39;100.00
51239;BME280;38154;47.548;18.828;2022-09-09T03:43:28;98564.66;;;15.45;100.00
51239;BME280;38154;47.548;18.828;2022-09-09T03:45:55;98558.63;;;15.41;100.00
51239;BME280;38154;47.548;18.828;2022-09-09T03:48:23;98566.72;;;15.32;100.00
51239;BME280;38154;47.548;18.828;2022-09-09T03:50:51;98569.22;;;15.36;100.00
51239;BME280;38154;47.548;18.828;2022-09-09T03:53:19;98574.66;;;15.29;100.00
51239;BME280;38154;47.548;18.828;2022-09-09T03:55:46;98575.56;;;15.26;100.00
51239;BME280;38154;47.548;18.828;2022-09-09T03:58:13;98580.00;;;15.24;100.00
51239;BME280;38154;47.548;18.828;2022-09-09T04:00:39;98588.03;;;15.15;100.00
51239;BME280;38154;47.548;18.828;2022-09-09T04:03:09;98591.63;;;15.12;100.00
51239;BME280;38154;47.548;18.828;2022-09-09T04:05:35;98593.50;;;15.06;100.00
51239;BME280;38154;47.548;18.828;2022-09-09T04:08:08;98587.38;;;15.07;100.00
51239;BME280;38154;47.548;18.828;2022-09-09T04:10:34;98576.91;;;15.03;100.00
51239;BME280;38154;47.548;18.828;2022-09-09T04:13:04;98581.41;;;14.97;100.00
51239;BME280;38154;47.548;18.828;2022-09-09T04:15:30;98581.56;;;14.89;100.00
51239;BME280;38154;47.548;18.828;2022-09-09T04:17:56;98578.00;;;14.93;100.00
51239;BME280;38154;47.548;18.828;2022-09-09T04:20:22;98576.22;;;14.94;100.00
51239;BME280;38154;47.548;18.828;2022-09-09T04:22:48;98574.47;;;14.93;100.00
51239;BME280;38154;47.548;18.828;2022-09-09T04:25:15;98576.25;;;14.92;100.00
51239;BME280;38154;47.548;18.828;2022-09-09T04:27:40;98585.88;;;14.93;100.00
51239;BME280;38154;47.548;18.828;2022-09-09T04:30:07;98586.78;;;14.91;100.00
51239;BME280;38154;47.548;18.828;2022-09-09T04:32:33;98581.22;;;15.06;100.00
51239;BME280;38154;47.548;18.828;2022-09-09T04:35:00;98579.34;;;15.13;100.00
51239;BME280;38154;47.548;18.828;2022-09-09T04:37:26;98569.75;;;15.12;100.00
51239;BME280;38154;47.548;18.828;2022-09-09T04:39:51;98573.94;;;15.20;100.00
51239;BME280;38154;47.548;18.828;2022-09-09T04:42:17;98576.50;;;15.24;100.00
51239;BME280;38154;47.548;18.828;2022-09-09T04:44:45;98573.88;;;15.24;100.00
51239;BME280;38154;47.548;18.828;2022-09-09T04:47:11;98562.34;;;15.31;100.00
51239;BME280;38154;47.548;18.828;2022-09-09T04:49:37;98557.94;;;15.31;100.00
51239;BME280;38154;47.548;18.828;2022-09-09T04:52:04;98549.19;;;15.32;100.00
51239;BME280;38154;47.548;18.828;2022-09-09T04:54:29;98563.16;;;15.33;100.00
51239;BME280;38154;47.548;18.828;2022-09-09T04:56:55;98563.16;;;15.33;100.00
51239;BME280;38154;47.548;18.828;2022-09-09T04:59:21;98564.69;;;15.43;100.00
51239;BME280;38154;47.548;18.828;2022-09-09T05:01:48;98564.56;;;15.49;100.00
51239;BME280;38154;47.548;18.828;2022-09-09T05:04:16;98572.16;;;15.62;100.00
51239;BME280;38154;47.548;18.828;2022-09-09T05:06:41;98566.94;;;15.60;100.00
51239;BME280;38154;47.548;18.828;2022-09-09T05:09:08;98568.56;;;15.67;100.00
51239;BME280;38154;47.548;18.828;2022-09-09T05:11:34;98564.06;;;15.72;100.00
51239;BME280;38154;47.548;18.828;2022-09-09T05:14:04;98571.03;;;15.73;100.00
51239;BME280;38154;47.548;18.828;2022-09-09T05:16:30;98576.25;;;15.75;100.00
51239;BME280;38154;47.548;18.828;2022-09-09T05:18:56;98572.28;;;15.98;100.00
51239;BME280;38154;47.548;18.828;2022-09-09T05:21:24;98572.94;;;16.06;100.00
51239;BME280;38154;47.548;18.828;2022-09-09T05:23:52;98578.00;;;16.13;100.00
51239;BME280;38154;47.548;18.828;2022-09-09T05:26:22;98578.63;;;16.25;100.00
51239;BME280;38154;47.548;18.828;2022-09-09T05:28:48;98574.03;;;16.33;100.00
51239;BME280;38154;47.548;18.828;2022-09-09T05:31:16;98574.41;;;16.52;100.00
51239;BME280;38154;47.548;18.828;2022-09-09T05:33:43;98575.28;;;16.53;100.00
51239;BME280;38154;47.548;18.828;2022-09-09T05:36:13;98580.34;;;16.60;100.00
51239;BME280;38154;47.548;18.828;2022-09-09T05:38:39;98580.22;;;16.65;100.00
51239;BME280;38154;47.548;18.828;2022-09-09T05:41:07;98569.78;;;16.62;100.00
51239;BME280;38154;47.548;18.828;2022-09-09T05:43:33;98567.66;;;16.76;100.00
51239;BME280;38154;47.548;18.828;2022-09-09T05:46:06;98569.00;;;16.93;100.00
51239;BME280;38154;47.548;18.828;2022-09-09T05:48:34;98569.44;;;17.07;100.00
51239;BME280;38154;47.548;18.828;2022-09-09T05:51:01;98570.00;;;17.18;100.00
51239;BME280;38154;47.548;18.828;2022-09-09T05:53:28;98566.78;;;17.38;100.00
51239;BME280;38154;47.548;18.828;2022-09-09T05:56:06;98571.13;;;17.69;100.00
51239;BME280;38154;47.548;18.828;2022-09-09T05:58:35;98578.50;;;17.86;100.00
51239;BME280;38154;47.548;18.828;2022-09-09T06:03:28;98575.75;;;18.71;100.00
51239;BME280;38154;47.548;18.828;2022-09-09T06:05:58;98577.06;;;19.09;100.00
51239;BME280;38154;47.548;18.828;2022-09-09T06:08:24;98590.78;;;19.67;100.00
51239;BME280;38154;47.548;18.828;2022-09-09T06:10:50;98588.94;;;19.45;100.00
51239;BME280;38154;47.548;18.828;2022-09-09T06:13:17;98586.94;;;19.28;100.00
51239;BME280;38154;47.548;18.828;2022-09-09T06:15:51;98590.22;;;19.35;100.00
51239;BME280;38154;47.548;18.828;2022-09-09T06:18:18;98590.34;;;19.32;100.00
51239;BME280;38154;47.548;18.828;2022-09-09T06:21:01;98595.00;;;19.71;100.00
51239;BME280;38154;47.548;18.828;2022-09-09T06:23:29;98587.62;;;20.67;100.00
51239;BME280;38154;47.548;18.828;2022-09-09T06:26:05;98589.66;;;21.22;100.00
51239;BME280;38154;47.548;18.828;2022-09-09T06:28:33;98602.31;;;21.16;100.00
51239;BME280;38154;47.548;18.828;2022-09-09T06:31:05;98597.09;;;20.73;100.00
51239;BME280;38154;47.548;18.828;2022-09-09T06:33:36;98602.12;;;21.20;100.00
51239;BME280;38154;47.548;18.828;2022-09-09T06:36:05;98606.06;;;21.51;99.99
51239;BME280;38154;47.548;18.828;2022-09-09T06:38:30;98594.16;;;21.60;97.96
51239;BME280;38154;47.548;18.828;2022-09-09T06:40:58;98588.91;;;21.58;98.86
51239;BME280;38154;47.548;18.828;2022-09-09T06:43:25;98591.56;;;21.58;96.38
51239;BME280;38154;47.548;18.828;2022-09-09T06:45:56;98599.13;;;21.67;93.83
51239;BME280;38154;47.548;18.828;2022-09-09T06:48:22;98603.69;;;21.83;93.21
51239;BME280;38154;47.548;18.828;2022-09-09T06:50:48;98607.72;;;21.73;93.61
51239;BME280;38154;47.548;18.828;2022-09-09T06:53:18;98607.78;;;21.71;91.74
51239;BME280;38154;47.548;18.828;2022-09-09T06:55:45;98612.16;;;21.91;90.89
51239;BME280;38154;47.548;18.828;2022-09-09T06:58:11;98618.03;;;21.60;93.23
51239;BME280;38154;47.548;18.828;2022-09-09T07:00:37;98611.91;;;21.39;96.01
51239;BME280;38154;47.548;18.828;2022-09-09T07:03:05;98616.91;;;21.45;92.96
51239;BME280;38154;47.548;18.828;2022-09-09T07:05:31;98623.44;;;21.38;94.88
51239;BME280;38154;47.548;18.828;2022-09-09T07:07:57;98618.34;;;21.54;94.15
51239;BME280;38154;47.548;18.828;2022-09-09T07:10:24;98621.56;;;23.89;85.18
51239;BME280;38154;47.548;18.828;2022-09-09T07:12:51;98627.34;;;27.39;60.60
51239;BME280;38154;47.548;18.828;2022-09-09T07:15:17;98626.09;;;29.38;54.18
51239;BME280;38154;47.548;18.828;2022-09-09T07:17:44;98619.00;;;28.79;51.88
51239;BME280;38154;47.548;18.828;2022-09-09T07:20:10;98628.78;;;27.95;53.87
51239;BME280;38154;47.548;18.828;2022-09-09T07:22:36;98637.06;;;28.40;52.79
51239;BME280;38154;47.548;18.828;2022-09-09T07:25:01;98630.47;;;29.96;49.53
51239;BME280;38154;47.548;18.828;2022-09-09T07:27:27;98636.25;;;31.42;44.34
51239;BME280;38154;47.548;18.828;2022-09-09T07:29:53;98632.78;;;32.52;42.75
51239;BME280;38154;47.548;18.828;2022-09-09T07:32:20;98636.06;;;32.95;38.55
51239;BME280;38154;47.548;18.828;2022-09-09T07:34:46;98637.09;;;33.60;38.54
51239;BME280;38154;47.548;18.828;2022-09-09T07:37:13;98651.94;;;34.40;36.00
51239;BME280;38154;47.548;18.828;2022-09-09T07:39:39;98650.94;;;34.59;35.60
51239;BME280;38154;47.548;18.828;2022-09-09T07:42:05;98654.31;;;34.88;35.99
51239;BME280;38154;47.548;18.828;2022-09-09T07:44:31;98657.09;;;34.79;36.85
51239;BME280;38154;47.548;18.828;2022-09-09T07:47:01;98657.13;;;34.69;35.04
51239;BME280;38154;47.548;18.828;2022-09-09T07:49:27;98652.28;;;34.90;35.35
51239;BME280;38154;47.548;18.828;2022-09-09T07:51:53;98651.34;;;35.00;35.55
51239;BME280;38154;47.548;18.828;2022-09-09T07:54:19;98655.31;;;35.84;34.52
51239;BME280;38154;47.548;18.828;2022-09-09T07:56:46;98642.97;;;36.32;34.07
51239;BME280;38154;47.548;18.828;2022-09-09T07:59:12;98651.53;;;36.19;33.36
51239;BME280;38154;47.548;18.828;2022-09-09T08:01:47;98648.12;;;36.09;33.68
51239;BME280;38154;47.548;18.828;2022-09-09T08:04:16;98651.97;;;35.90;35.84
51239;BME280;38154;47.548;18.828;2022-09-09T08:06:45;98649.28;;;36.57;33.33
51239;BME280;38154;47.548;18.828;2022-09-09T08:09:12;98660.34;;;36.21;34.01
51239;BME280;38154;47.548;18.828;2022-09-09T08:11:40;98658.91;;;36.35;33.49
51239;BME280;38154;47.548;18.828;2022-09-09T08:14:07;98656.12;;;36.86;33.13
51239;BME280;38154;47.548;18.828;2022-09-09T08:16:36;98651.97;;;36.49;32.68
51239;BME280;38154;47.548;18.828;2022-09-09T08:19:02;98651.66;;;36.52;31.44
51239;BME280;38154;47.548;18.828;2022-09-09T08:21:30;98649.31;;;37.31;30.83
51239;BME280;38154;47.548;18.828;2022-09-09T08:23:59;98647.56;;;37.47;30.39
51239;BME280;38154;47.548;18.828;2022-09-09T08:26:33;98646.25;;;37.35;29.95
51239;BME280;38154;47.548;18.828;2022-09-09T08:29:04;98645.19;;;37.44;29.73
51239;BME280;38154;47.548;18.828;2022-09-09T08:31:31;98654.00;;;37.62;28.57
51239;BME280;38154;47.548;18.828;2022-09-09T08:33:58;98648.75;;;36.46;30.30
51239;BME280;38154;47.548;18.828;2022-09-09T08:36:31;98638.88;;;36.36;29.65
51239;BME280;38154;47.548;18.828;2022-09-09T08:38:59;98646.25;;;37.10;28.99
51239;BME280;38154;47.548;18.828;2022-09-09T08:41:48;98656.22;;;37.59;28.84
51239;BME280;38154;47.548;18.828;2022-09-09T08:52:36;98668.97;;;36.59;30.59
51239;BME280;38154;47.548;18.828;2022-09-09T08:58:13;98663.75;;;37.32;28.97
51239;BME280;38154;47.548;18.828;2022-09-09T09:01:05;98657.75;;;37.78;27.86
51239;BME280;38154;47.548;18.828;2022-09-09T09:11:56;98662.41;;;38.00;30.82
51239;BME280;38154;47.548;18.828;2022-09-09T09:14:31;98654.56;;;37.41;28.71
51239;BME280;38154;47.548;18.828;2022-09-09T09:17:01;98649.66;;;37.04;30.31
51239;BME280;38154;47.548;18.828;2022-09-09T09:19:33;98656.47;;;37.33;28.47
51239;BME280;38154;47.548;18.828;2022-09-09T09:24:52;98651.75;;;37.82;28.17
51239;BME280;38154;47.548;18.828;2022-09-09T09:27:28;98650.06;;;37.81;27.89
51239;BME280;38154;47.548;18.828;2022-09-09T09:29:58;98637.41;;;37.97;27.82
51239;BME280;38154;47.548;18.828;2022-09-09T09:32:28;98630.53;;;38.09;28.00
51239;BME280;38154;47.548;18.828;2022-09-09T09:34:57;98636.19;;;38.39;25.77
51239;BME280;38154;47.548;18.828;2022-09-09T09:37:30;98632.56;;;38.15;27.07
51239;BME280;38154;47.548;18.828;2022-09-09T09:40:10;98625.84;;;37.30;27.51
51239;BME280;38154;47.548;18.828;2022-09-09T09:42:38;98623.13;;;37.30;27.77
51239;BME280;38154;47.548;18.828;2022-09-09T09:47:58;98630.69;;;38.47;25.97
51239;BME280;38154;47.548;18.828;2022-09-09T09:50:24;98634.72;;;38.28;26.02
51239;BME280;38154;47.548;18.828;2022-09-09T09:52:55;98632.84;;;37.25;27.46
51239;BME280;38154;47.548;18.828;2022-09-09T09:55:23;98634.50;;;36.60;28.74
51239;BME280;38154;47.548;18.828;2022-09-09T09:57:49;98633.38;;;36.87;26.32
51239;BME280;38154;47.548;18.828;2022-09-09T10:00:18;98630.59;;;37.37;27.52
51239;BME280;38154;47.548;18.828;2022-09-09T10:02:46;98628.37;;;37.40;25.36
51239;BME280;38154;47.548;18.828;2022-09-09T10:05:25;98629.78;;;37.84;24.24
51239;BME280;38154;47.548;18.828;2022-09-09T10:10:59;98624.81;;;37.96;25.55
51239;BME280;38154;47.548;18.828;2022-09-09T10:13:49;98623.56;;;37.59;25.03
51239;BME280;38154;47.548;18.828;2022-09-09T10:16:48;98614.50;;;36.86;26.57
51239;BME280;38154;47.548;18.828;2022-09-09T10:19:29;98614.44;;;36.45;28.00
51239;BME280;38154;47.548;18.828;2022-09-09T10:22:00;98623.44;;;35.86;28.02
51239;BME280;38154;47.548;18.828;2022-09-09T10:24:42;98614.56;;;35.41;27.91
51239;BME280;38154;47.548;18.828;2022-09-09T10:30:18;98616.53;;;35.65;27.03
51239;BME280;38154;47.548;18.828;2022-09-09T10:32:49;98619.69;;;35.53;28.97
51239;BME280;38154;47.548;18.828;2022-09-09T10:35:34;98615.50;;;35.58;29.34
51239;BME280;38154;47.548;18.828;2022-09-09T10:38:17;98626.56;;;36.08;27.78
51239;BME280;38154;47.548;18.828;2022-09-09T10:46:22;98619.91;;;36.61;28.15
51239;BME280;38154;47.548;18.828;2022-09-09T10:54:22;98618.47;;;34.95;28.31
51239;BME280;38154;47.548;18.828;2022-09-09T10:56:56;98625.62;;;33.39;30.78
51239;BME280;38154;47.548;18.828;2022-09-09T10:59:31;98616.75;;;32.80;32.59
51239;BME280;38154;47.548;18.828;2022-09-09T11:02:13;98618.91;;;33.53;31.05
51239;BME280;38154;47.548;18.828;2022-09-09T11:07:39;98616.16;;;34.82;28.73
51239;BME280;38154;47.548;18.828;2022-09-09T11:10:57;98614.47;;;35.07;29.12
51239;BME280;38154;47.548;18.828;2022-09-09T11:13:09;98621.09;;;35.99;27.26
51239;BME280;38154;47.548;18.828;2022-09-09T11:15:44;98613.31;;;37.05;25.53
51239;BME280;38154;47.548;18.828;2022-09-09T11:18:15;98611.25;;;36.99;25.60
51239;BME280;38154;47.548;18.828;2022-09-09T11:20:44;98610.41;;;37.14;25.98
51239;BME280;38154;47.548;18.828;2022-09-09T11:23:16;98608.69;;;36.48;26.26
51239;BME280;38154;47.548;18.828;2022-09-09T11:25:48;98605.13;;;34.65;29.31
51239;BME280;38154;47.548;18.828;2022-09-09T11:28:40;98604.75;;;33.31;29.96
51239;BME280;38154;47.548;18.828;2022-09-09T11:37:19;98603.94;;;30.14;36.62
51239;BME280;38154;47.548;18.828;2022-09-09T11:42:23;98603.22;;;30.01;34.74
51239;BME280;38154;47.548;18.828;2022-09-09T11:44:50;98595.41;;;30.74;34.07
51239;BME280;38154;47.548;18.828;2022-09-09T11:47:28;98593.72;;;32.27;31.04
51239;BME280;38154;47.548;18.828;2022-09-09T11:50:56;98599.91;;;33.72;28.98
51239;BME280;38154;47.548;18.828;2022-09-09T11:53:05;98588.66;;;33.30;30.90
51239;BME280;38154;47.548;18.828;2022-09-09T11:55:34;98592.16;;;32.53;31.07
51239;BME280;38154;47.548;18.828;2022-09-09T12:00:47;98586.91;;;32.13;31.30
51239;BME280;38154;47.548;18.828;2022-09-09T12:03:43;98584.34;;;32.80;30.60
51239;BME280;38154;47.548;18.828;2022-09-09T12:06:32;98588.88;;;33.56;29.10
51239;BME280;38154;47.548;18.828;2022-09-09T12:09:13;98591.03;;;34.08;28.25
51239;BME280;38154;47.548;18.828;2022-09-09T12:11:41;98592.84;;;34.53;28.08
51239;BME280;38154;47.548;18.828;2022-09-09T12:17:22;98595.34;;;33.35;29.37
51239;BME280;38154;47.548;18.828;2022-09-09T12:20:03;98598.41;;;32.93;29.79
51239;BME280;38154;47.548;18.828;2022-09-09T12:27:51;98582.91;;;32.95;29.35
51239;BME280;38154;47.548;18.828;2022-09-09T12:30:24;98576.97;;;32.62;30.26
51239;BME280;38154;47.548;18.828;2022-09-09T12:33:06;98574.00;;;32.65;29.78
51239;BME280;38154;47.548;18.828;2022-09-09T12:35:34;98561.91;;;32.50;29.49
51239;BME280;38154;47.548;18.828;2022-09-09T12:38:04;98561.78;;;32.51;28.29
51239;BME280;38154;47.548;18.828;2022-09-09T12:40:34;98567.72;;;32.35;29.09
51239;BME280;38154;47.548;18.828;2022-09-09T12:43:17;98562.66;;;31.82;29.83
51239;BME280;38154;47.548;18.828;2022-09-09T12:45:44;98549.44;;;30.86;31.66
51239;BME280;38154;47.548;18.828;2022-09-09T12:48:11;98554.13;;;29.87;34.53
51239;BME280;38154;47.548;18.828;2022-09-09T12:50:46;98547.88;;;29.08;34.41
51239;BME280;38154;47.548;18.828;2022-09-09T12:53:36;98543.03;;;28.19;36.38
51239;BME280;38154;47.548;18.828;2022-09-09T12:56:06;98539.19;;;28.35;35.59
51239;BME280;38154;47.548;18.828;2022-09-09T12:58:36;98529.50;;;27.97;36.94
51239;BME280;38154;47.548;18.828;2022-09-09T13:01:04;98536.00;;;27.68;37.59
51239;BME280;38154;47.548;18.828;2022-09-09T13:03:32;98529.13;;;27.77;36.79
51239;BME280;38154;47.548;18.828;2022-09-09T13:06:10;98518.16;;;27.80;37.76
51239;BME280;38154;47.548;18.828;2022-09-09T13:08:37;98517.25;;;27.68;36.28
51239;BME280;38154;47.548;18.828;2022-09-09T13:11:04;98516.72;;;27.63;35.97
51239;BME280;38154;47.548;18.828;2022-09-09T13:13:36;98515.44;;;27.32;37.71
51239;BME280;38154;47.548;18.828;2022-09-09T13:16:05;98514.06;;;27.13;39.13
51239;BME280;38154;47.548;18.828;2022-09-09T13:18:35;98523.78;;;26.76;42.12
51239;BME280;38154;47.548;18.828;2022-09-09T13:21:02;98515.44;;;26.68;39.29
51239;BME280;38154;47.548;18.828;2022-09-09T13:23:33;98499.03;;;26.59;39.50
51239;BME280;38154;47.548;18.828;2022-09-09T13:26:03;98505.16;;;26.74;39.07
51239;BME280;38154;47.548;18.828;2022-09-09T13:28:30;98505.38;;;26.84;39.13
51239;BME280;38154;47.548;18.828;2022-09-09T13:31:04;98512.13;;;27.02;39.78
51239;BME280;38154;47.548;18.828;2022-09-09T13:33:34;98510.91;;;27.19;38.45
51239;BME280;38154;47.548;18.828;2022-09-09T13:36:06;98515.47;;;26.93;38.52
51239;BME280;38154;47.548;18.828;2022-09-09T13:38:37;98507.84;;;26.74;41.95
51239;BME280;38154;47.548;18.828;2022-09-09T13:41:08;98509.03;;;26.70;41.54
51239;BME280;38154;47.548;18.828;2022-09-09T13:43:44;98507.41;;;26.68;44.07
51239;BME280;38154;47.548;18.828;2022-09-09T13:46:35;98499.91;;;26.60;41.11
51239;BME280;38154;47.548;18.828;2022-09-09T13:49:22;98504.81;;;26.53;40.64
51239;BME280;38154;47.548;18.828;2022-09-09T13:51:50;98496.03;;;26.51;40.23
51239;BME280;38154;47.548;18.828;2022-09-09T13:54:19;98496.34;;;26.46;41.03
51239;BME280;38154;47.548;18.828;2022-09-09T13:56:46;98498.56;;;26.80;37.88
51239;BME280;38154;47.548;18.828;2022-09-09T13:59:17;98481.84;;;27.02;40.19
51239;BME280;38154;47.548;18.828;2022-09-09T14:01:45;98479.78;;;27.06;37.77
51239;BME280;38154;47.548;18.828;2022-09-09T14:04:12;98477.88;;;26.82;40.47
51239;BME280;38154;47.548;18.828;2022-09-09T14:06:39;98466.34;;;26.81;37.22
51239;BME280;38154;47.548;18.828;2022-09-09T14:09:06;98463.97;;;26.77;38.52
51239;BME280;38154;47.548;18.828;2022-09-09T14:11:32;98460.81;;;26.44;37.86
51239;BME280;38154;47.548;18.828;2022-09-09T14:13:58;98455.63;;;26.43;40.55
51239;BME280;38154;47.548;18.828;2022-09-09T14:16:24;98452.28;;;26.39;40.13
51239;BME280;38154;47.548;18.828;2022-09-09T14:18:52;98442.53;;;26.25;40.52
51239;BME280;38154;47.548;18.828;2022-09-09T14:21:18;98441.13;;;26.07;41.97
51239;BME280;38154;47.548;18.828;2022-09-09T14:23:44;98438.84;;;26.01;41.48
51239;BME280;38154;47.548;18.828;2022-09-09T14:26:10;98446.97;;;25.99;43.76
51239;BME280;38154;47.548;18.828;2022-09-09T14:28:36;98442.06;;;26.06;41.53
51239;BME280;38154;47.548;18.828;2022-09-09T14:31:03;98438.09;;;25.99;41.70
51239;BME280;38154;47.548;18.828;2022-09-09T14:33:30;98442.88;;;25.93;41.45
51239;BME280;38154;47.548;18.828;2022-09-09T14:35:57;98433.41;;;26.02;43.22
51239;BME280;38154;47.548;18.828;2022-09-09T14:38:23;98440.47;;;26.03;41.76
51239;BME280;38154;47.548;18.828;2022-09-09T14:40:48;98434.41;;;26.27;39.63
51239;BME280;38154;47.548;18.828;2022-09-09T14:43:14;98431.31;;;26.33;41.38
51239;BME280;38154;47.548;18.828;2022-09-09T14:45:40;98441.03;;;26.34;40.27